sensor_id;sensor_type;location;lat;lon;timestamp;temperature;humidity
32749;DHT22;19119;52.474;13.710;2023-02-15T00:01:55;3.20;99.90
32749;DHT22;19119;52.474;13.710;2023-02-15T00:04:23;3.10;99.90
32749;DHT22;19119;52.474;13.710;2023-02-15T00:06:49;3.00;99.90
32749;DHT22;19119;52.474;13.710;2023-02-15T00:09:14;2.90;99.90
32749;DHT22;19119;52.474;13.710;2023-02-15T00:11:40;2.80;99.90
32749;DHT22;19119;52.474;13.710;2023-02-15T00:14:16;2.80;99.90
32749;DHT22;19119;52.474;13.710;2023-02-15T00:16:43;2.70;99.90
32749;DHT22;19119;52.474;13.710;2023-02-15T00:19:10;2.60;99.90
32749;DHT22;19119;52.474;13.710;2023-02-15T00:21:36;2.50;99.90
32749;DHT22;19119;52.474;13.710;2023-02-15T00:24:04;2.40;99.90
32749;DHT22;19119;52.474;13.710;2023-02-15T00:26:30;2.30;99.90
32749;DHT22;19119;52.474;13.710;2023-02-15T00:28:56;2.20;99.90
32749;DHT22;19119;52.474;13.710;2023-02-15T00:31:24;2.10;99.90
32749;DHT22;19119;52.474;13.710;2023-02-15T00:33:50;2.00;99.90
32749;DHT22;19119;52.474;13.710;2023-02-15T00:36:15;2.00;99.90
32749;DHT22;19119;52.474;13.710;2023-02-15T00:38:41;1.90;99.90
32749;DHT22;19119;52.474;13.710;2023-02-15T00:41:07;1.90;99.90
32749;DHT22;19119;52.474;13.710;2023-02-15T00:43:35;1.80;99.90
32749;DHT22;19119;52.474;13.710;2023-02-15T00:46:01;1.70;99.90
32749;DHT22;19119;52.474;13.710;2023-02-15T00:48:27;1.70;99.90
32749;DHT22;19119;52.474;13.710;2023-02-15T00:50:55;1.70;99.90
32749;DHT22;19119;52.474;13.710;2023-02-15T00:53:21;1.70;99.90
32749;DHT22;19119;52.474;13.710;2023-02-15T00:55:47;1.70;99.90
32749;DHT22;19119;52.474;13.710;2023-02-15T00:58:14;1.50;99.90
32749;DHT22;19119;52.474;13.710;2023-02-15T01:00:42;1.40;99.90
32749;DHT22;19119;52.474;13.710;2023-02-15T01:03:08;1.40;99.90
32749;DHT22;19119;52.474;13.710;2023-02-15T01:05:34;1.40;99.90
32749;DHT22;19119;52.474;13.710;2023-02-15T01:08:00;1.30;99.90
32749;DHT22;19119;52.474;13.710;2023-02-15T01:10:26;1.30;99.90
32749;DHT22;19119;52.474;13.710;2023-02-15T01:12:53;1.20;99.90
32749;DHT22;19119;52.474;13.710;2023-02-15T01:15:19;1.10;99.90
32749;DHT22;19119;52.474;13.710;2023-02-15T01:17:45;1.10;99.90
32749;DHT22;19119;52.474;13.710;2023-02-15T01:20:17;1.00;99.90
32749;DHT22;19119;52.474;13.710;2023-02-15T01:22:43;1.00;99.90
32749;DHT22;19119;52.474;13.710;2023-02-15T01:25:08;1.00;99.90
32749;DHT22;19119;52.474;13.710;2023-02-15T01:27:34;0.90;99.90
32749;DHT22;19119;52.474;13.710;2023-02-15T01:29:59;0.90;99.90
32749;DHT22;19119;52.474;13.710;2023-02-15T01:32:25;0.80;99.90
32749;DHT22;19119;52.474;13.710;2023-02-15T01:34:52;0.70;99.90
32749;DHT22;19119;52.474;13.710;2023-02-15T01:37:18;0.60;99.90
32749;DHT22;19119;52.474;13.710;2023-02-15T01:39:43;0.60;99.90
32749;DHT22;19119;52.474;13.710;2023-02-15T01:42:12;0.60;99.90
32749;DHT22;19119;52.474;13.710;2023-02-15T01:47:22;0.60;99.90
32749;DHT22;19119;52.474;13.710;2023-02-15T01:49:49;0.60;99.90
32749;DHT22;19119;52.474;13.710;2023-02-15T01:52:18;0.60;99.90
32749;DHT22;19119;52.474;13.710;2023-02-15T01:54:45;0.60;99.90
32749;DHT22;19119;52.474;13.710;2023-02-15T01:57:16;0.60;99.90
32749;DHT22;19119;52.474;13.710;2023-02-15T01:59:46;0.60;99.90
32749;DHT22;19119;52.474;13.710;2023-02-15T02:02:13;0.70;99.90
32749;DHT22;19119;52.474;13.710;2023-02-15T02:04:48;0.60;99.90
32749;DHT22;19119;52.474;13.710;2023-02-15T02:07:17;0.60;99.90
32749;DHT22;19119;52.474;13.710;2023-02-15T02:09:44;0.60;99.90
32749;DHT22;19119;52.474;13.710;2023-02-15T02:12:10;0.60;99.90
32749;DHT22;19119;52.474;13.710;2023-02-15T02:14:36;0.60;99.90
32749;DHT22;19119;52.474;13.710;2023-02-15T02:20:22;0.50;99.90
32749;DHT22;19119;52.474;13.710;2023-02-15T02:23:13;0.40;99.90
32749;DHT22;19119;52.474;13.710;2023-02-15T02:26:11;0.40;99.90
32749;DHT22;19119;52.474;13.710;2023-02-15T02:34:25;0.40;99.90
32749;DHT22;19119;52.474;13.710;2023-02-15T02:40:46;0.30;99.90
32749;DHT22;19119;52.474;13.710;2023-02-15T02:43:16;0.30;99.90
32749;DHT22;19119;52.474;13.710;2023-02-15T02:45:50;0.30;99.90
32749;DHT22;19119;52.474;13.710;2023-02-15T02:48:21;0.30;99.90
32749;DHT22;19119;52.474;13.710;2023-02-15T02:50:47;0.20;99.90
32749;DHT22;19119;52.474;13.710;2023-02-15T02:53:13;0.20;99.90
32749;DHT22;19119;52.474;13.710;2023-02-15T02:56:30;0.20;99.90
32749;DHT22;19119;52.474;13.710;2023-02-15T02:59:05;0.10;99.90
32749;DHT22;19119;52.474;13.710;2023-02-15T03:01:48;0.10;99.90
32749;DHT22;19119;52.474;13.710;2023-02-15T03:04:23;0.10;99.90
32749;DHT22;19119;52.474;13.710;2023-02-15T03:07:00;0.10;99.90
32749;DHT22;19119;52.474;13.710;2023-02-15T03:12:00;0.10;99.90
32749;DHT22;19119;52.474;13.710;2023-02-15T03:14:27;0.00;99.90
32749;DHT22;19119;52.474;13.710;2023-02-15T03:16:53;0.00;99.90
32749;DHT22;19119;52.474;13.710;2023-02-15T03:19:32;-0.10;99.90
32749;DHT22;19119;52.474;13.710;2023-02-15T03:22:12;-0.10;99.90
32749;DHT22;19119;52.474;13.710;2023-02-15T03:24:46;-0.10;99.90
32749;DHT22;19119;52.474;13.710;2023-02-15T03:27:18;-0.10;99.90
32749;DHT22;19119;52.474;13.710;2023-02-15T03:29:53;-0.10;99.90
32749;DHT22;19119;52.474;13.710;2023-02-15T03:32:20;0.10;99.90
32749;DHT22;19119;52.474;13.710;2023-02-15T03:34:46;0.00;99.90
32749;DHT22;19119;52.474;13.710;2023-02-15T03:37:26;-0.10;99.90
32749;DHT22;19119;52.474;13.710;2023-02-15T03:39:59;-0.20;99.90
32749;DHT22;19119;52.474;13.710;2023-02-15T03:42:46;-0.20;99.90
32749;DHT22;19119;52.474;13.710;2023-02-15T03:45:17;-0.20;99.90
32749;DHT22;19119;52.474;13.710;2023-02-15T03:47:46;-0.30;99.90
32749;DHT22;19119;52.474;13.710;2023-02-15T03:50:21;-0.30;99.90
32749;DHT22;19119;52.474;13.710;2023-02-15T03:53:07;-0.30;99.90
32749;DHT22;19119;52.474;13.710;2023-02-15T03:55:34;-0.30;99.90
32749;DHT22;19119;52.474;13.710;2023-02-15T03:58:01;-0.30;99.90
32749;DHT22;19119;52.474;13.710;2023-02-15T04:00:54;-0.40;99.90
32749;DHT22;19119;52.474;13.710;2023-02-15T04:03:43;-0.50;99.90
32749;DHT22;19119;52.474;13.710;2023-02-15T04:06:10;-0.50;99.90
32749;DHT22;19119;52.474;13.710;2023-02-15T04:08:35;-0.60;99.90
32749;DHT22;19119;52.474;13.710;2023-02-15T04:11:20;-0.60;99.90
32749;DHT22;19119;52.474;13.710;2023-02-15T04:13:45;-0.60;99.90
32749;DHT22;19119;52.474;13.710;2023-02-15T04:16:11;-0.60;99.90
32749;DHT22;19119;52.474;13.710;2023-02-15T04:18:42;-0.60;99.90
32749;DHT22;19119;52.474;13.710;2023-02-15T04:21:28;-0.60;99.90
32749;DHT22;19119;52.474;13.710;2023-02-15T04:24:13;-0.60;99.90
32749;DHT22;19119;52.474;13.710;2023-02-15T04:26:58;-0.70;99.90
32749;DHT22;19119;52.474;13.710;2023-02-15T04:29:25;-0.80;99.90
32749;DHT22;19119;52.474;13.710;2023-02-15T04:31:53;-0.80;99.90
32749;DHT22;19119;52.474;13.710;2023-02-15T04:34:18;-0.80;99.90
32749;DHT22;19119;52.474;13.710;2023-02-15T04:36:44;-0.80;99.90
32749;DHT22;19119;52.474;13.710;2023-02-15T04:39:12;-0.80;99.90
32749;DHT22;19119;52.474;13.710;2023-02-15T04:41:38;-0.90;99.90
32749;DHT22;19119;52.474;13.710;2023-02-15T04:44:04;-0.90;99.90
32749;DHT22;19119;52.474;13.710;2023-02-15T04:46:29;-0.90;99.90
32749;DHT22;19119;52.474;13.710;2023-02-15T04:48:55;-0.90;99.90
32749;DHT22;19119;52.474;13.710;2023-02-15T04:51:21;-0.90;99.90
32749;DHT22;19119;52.474;13.710;2023-02-15T04:53:46;-0.90;99.90
32749;DHT22;19119;52.474;13.710;2023-02-15T04:56:12;-1.00;99.90
32749;DHT22;19119;52.474;13.710;2023-02-15T04:58:38;-0.90;99.90
32749;DHT22;19119;52.474;13.710;2023-02-15T05:01:06;-1.00;99.90
32749;DHT22;19119;52.474;13.710;2023-02-15T05:03:32;-0.90;99.90
32749;DHT22;19119;52.474;13.710;2023-02-15T05:05:57;-1.00;99.90
32749;DHT22;19119;52.474;13.710;2023-02-15T05:08:23;-1.00;99.90
32749;DHT22;19119;52.474;13.710;2023-02-15T05:10:48;-1.00;99.90
32749;DHT22;19119;52.474;13.710;2023-02-15T05:13:14;-1.00;99.90
32749;DHT22;19119;52.474;13.710;2023-02-15T05:15:40;-1.00;99.90
32749;DHT22;19119;52.474;13.710;2023-02-15T05:18:05;-1.00;99.90
32749;DHT22;19119;52.474;13.710;2023-02-15T05:20:33;-1.10;99.90
32749;DHT22;19119;52.474;13.710;2023-02-15T05:22:58;-1.00;99.90
32749;DHT22;19119;52.474;13.710;2023-02-15T05:25:24;-1.00;99.90
32749;DHT22;19119;52.474;13.710;2023-02-15T05:28:10;-1.00;99.90
32749;DHT22;19119;52.474;13.710;2023-02-15T05:30:49;-1.00;99.90
32749;DHT22;19119;52.474;13.710;2023-02-15T05:33:15;-1.00;99.90
32749;DHT22;19119;52.474;13.710;2023-02-15T05:35:41;-0.90;99.90
32749;DHT22;19119;52.474;13.710;2023-02-15T05:38:06;-0.80;99.90
32749;DHT22;19119;52.474;13.710;2023-02-15T05:40:32;-0.80;99.90
32749;DHT22;19119;52.474;13.710;2023-02-15T05:42:57;-0.80;99.90
32749;DHT22;19119;52.474;13.710;2023-02-15T05:45:23;-0.70;99.90
32749;DHT22;19119;52.474;13.710;2023-02-15T05:47:49;-0.70;99.90
32749;DHT22;19119;52.474;13.710;2023-02-15T05:50:15;-0.10;99.90
32749;DHT22;19119;52.474;13.710;2023-02-15T05:52:40;-0.50;99.90
32749;DHT22;19119;52.474;13.710;2023-02-15T05:55:06;-0.50;99.90
32749;DHT22;19119;52.474;13.710;2023-02-15T05:57:34;-0.40;99.90
32749;DHT22;19119;52.474;13.710;2023-02-15T06:00:00;-0.30;99.90
32749;DHT22;19119;52.474;13.710;2023-02-15T06:02:25;-0.30;99.90
32749;DHT22;19119;52.474;13.710;2023-02-15T06:04:51;-0.30;99.90
32749;DHT22;19119;52.474;13.710;2023-02-15T06:07:24;-0.20;99.90
32749;DHT22;19119;52.474;13.710;2023-02-15T06:09:49;-0.20;99.90
32749;DHT22;19119;52.474;13.710;2023-02-15T06:12:15;-0.20;99.90
32749;DHT22;19119;52.474;13.710;2023-02-15T06:14:40;-0.20;99.90
32749;DHT22;19119;52.474;13.710;2023-02-15T06:17:06;-0.20;99.90
32749;DHT22;19119;52.474;13.710;2023-02-15T06:19:31;-0.10;99.90
32749;DHT22;19119;52.474;13.710;2023-02-15T06:21:57;-0.10;99.90
32749;DHT22;19119;52.474;13.710;2023-02-15T06:24:22;-0.10;99.90
32749;DHT22;19119;52.474;13.710;2023-02-15T06:26:48;-0.10;99.90
32749;DHT22;19119;52.474;13.710;2023-02-15T06:29:13;0.00;99.90
32749;DHT22;19119;52.474;13.710;2023-02-15T06:31:39;0.00;99.90
32749;DHT22;19119;52.474;13.710;2023-02-15T06:34:05;0.00;99.90
32749;DHT22;19119;52.474;13.710;2023-02-15T06:36:31;0.00;99.90
32749;DHT22;19119;52.474;13.710;2023-02-15T06:38:57;0.00;99.90
32749;DHT22;19119;52.474;13.710;2023-02-15T06:41:23;0.00;99.90
32749;DHT22;19119;52.474;13.710;2023-02-15T06:43:49;0.00;99.90
32749;DHT22;19119;52.474;13.710;2023-02-15T06:46:15;0.00;99.90
32749;DHT22;19119;52.474;13.710;2023-02-15T06:48:41;-0.10;99.90
32749;DHT22;19119;52.474;13.710;2023-02-15T06:51:06;-0.10;99.90
32749;DHT22;19119;52.474;13.710;2023-02-15T06:53:32;0.00;99.90
32749;DHT22;19119;52.474;13.710;2023-02-15T06:56:05;0.00;99.90
32749;DHT22;19119;52.474;13.710;2023-02-15T06:58:32;0.00;99.90
32749;DHT22;19119;52.474;13.710;2023-02-15T07:00:58;0.00;99.90
32749;DHT22;19119;52.474;13.710;2023-02-15T07:03:24;0.00;99.90
32749;DHT22;19119;52.474;13.710;2023-02-15T07:05:57;0.00;99.90
32749;DHT22;19119;52.474;13.710;2023-02-15T07:08:23;0.00;99.90
32749;DHT22;19119;52.474;13.710;2023-02-15T07:10:50;0.10;99.90
32749;DHT22;19119;52.474;13.710;2023-02-15T07:13:16;0.10;99.90
32749;DHT22;19119;52.474;13.710;2023-02-15T07:15:42;0.20;99.90
32749;DHT22;19119;52.474;13.710;2023-02-15T07:18:08;0.20;99.90
32749;DHT22;19119;52.474;13.710;2023-02-15T07:20:34;0.20;99.90
32749;DHT22;19119;52.474;13.710;2023-02-15T07:23:01;0.30;99.90
32749;DHT22;19119;52.474;13.710;2023-02-15T07:25:26;0.30;99.90
32749;DHT22;19119;52.474;13.710;2023-02-15T07:28:00;0.30;99.90
32749;DHT22;19119;52.474;13.710;2023-02-15T07:30:26;0.40;99.90
32749;DHT22;19119;52.474;13.710;2023-02-15T07:32:56;0.50;99.90
32749;DHT22;19119;52.474;13.710;2023-02-15T07:35:47;0.40;99.90
32749;DHT22;19119;52.474;13.710;2023-02-15T07:38:12;0.50;99.90
32749;DHT22;19119;52.474;13.710;2023-02-15T07:40:38;0.50;99.90
32749;DHT22;19119;52.474;13.710;2023-02-15T07:43:03;0.50;99.90
32749;DHT22;19119;52.474;13.710;2023-02-15T07:45:29;0.50;99.90
32749;DHT22;19119;52.474;13.710;2023-02-15T07:47:54;0.60;99.90
32749;DHT22;19119;52.474;13.710;2023-02-15T07:50:20;0.60;99.90
32749;DHT22;19119;52.474;13.710;2023-02-15T07:52:46;0.70;99.90
32749;DHT22;19119;52.474;13.710;2023-02-15T07:55:11;0.70;99.90
32749;DHT22;19119;52.474;13.710;2023-02-15T07:57:42;0.70;99.90
32749;DHT22;19119;52.474;13.710;2023-02-15T08:00:08;0.70;99.90
32749;DHT22;19119;52.474;13.710;2023-02-15T08:02:34;0.70;99.90
32749;DHT22;19119;52.474;13.710;2023-02-15T08:05:02;0.70;99.90
32749;DHT22;19119;52.474;13.710;2023-02-15T08:07:27;0.70;99.90
32749;DHT22;19119;52.474;13.710;2023-02-15T08:09:53;0.60;99.90
32749;DHT22;19119;52.474;13.710;2023-02-15T08:12:19;0.70;99.90
32749;DHT22;19119;52.474;13.710;2023-02-15T08:14:44;0.70;99.90
32749;DHT22;19119;52.474;13.710;2023-02-15T08:17:10;0.80;99.90
32749;DHT22;19119;52.474;13.710;2023-02-15T08:19:36;0.80;99.90
32749;DHT22;19119;52.474;13.710;2023-02-15T08:22:04;0.90;99.90
32749;DHT22;19119;52.474;13.710;2023-02-15T08:24:32;0.90;99.90
32749;DHT22;19119;52.474;13.710;2023-02-15T08:26:58;1.00;99.90
32749;DHT22;19119;52.474;13.710;2023-02-15T08:29:27;1.10;99.90
32749;DHT22;19119;52.474;13.710;2023-02-15T08:31:55;1.10;99.90
32749;DHT22;19119;52.474;13.710;2023-02-15T08:34:24;1.10;99.90
32749;DHT22;19119;52.474;13.710;2023-02-15T08:36:50;1.00;99.90
32749;DHT22;19119;52.474;13.710;2023-02-15T08:39:16;1.10;99.90
32749;DHT22;19119;52.474;13.710;2023-02-15T08:41:44;1.10;99.90
32749;DHT22;19119;52.474;13.710;2023-02-15T08:44:10;1.20;99.90
32749;DHT22;19119;52.474;13.710;2023-02-15T08:46:38;1.30;99.90
32749;DHT22;19119;52.474;13.710;2023-02-15T08:49:04;1.20;99.90
32749;DHT22;19119;52.474;13.710;2023-02-15T08:51:33;1.30;99.90
32749;DHT22;19119;52.474;13.710;2023-02-15T08:54:03;1.40;99.90
32749;DHT22;19119;52.474;13.710;2023-02-15T08:56:32;1.30;99.90
32749;DHT22;19119;52.474;13.710;2023-02-15T08:58:59;1.30;99.90
32749;DHT22;19119;52.474;13.710;2023-02-15T09:01:26;1.10;99.90
32749;DHT22;19119;52.474;13.710;2023-02-15T09:03:57;1.40;99.90
32749;DHT22;19119;52.474;13.710;2023-02-15T09:06:23;1.50;99.90
32749;DHT22;19119;52.474;13.710;2023-02-15T09:08:49;1.60;99.90
32749;DHT22;19119;52.474;13.710;2023-02-15T09:11:17;1.70;99.90
32749;DHT22;19119;52.474;13.710;2023-02-15T09:14:02;1.80;99.90
32749;DHT22;19119;52.474;13.710;2023-02-15T09:16:30;1.80;99.90
32749;DHT22;19119;52.474;13.710;2023-02-15T09:18:56;1.90;99.90
32749;DHT22;19119;52.474;13.710;2023-02-15T09:21:24;2.10;99.90
32749;DHT22;19119;52.474;13.710;2023-02-15T09:23:55;2.10;99.90
32749;DHT22;19119;52.474;13.710;2023-02-15T09:26:22;2.00;99.90
32749;DHT22;19119;52.474;13.710;2023-02-15T09:28:52;2.00;99.90
32749;DHT22;19119;52.474;13.710;2023-02-15T09:31:20;2.10;99.90
32749;DHT22;19119;52.474;13.710;2023-02-15T09:33:47;2.10;99.90
32749;DHT22;19119;52.474;13.710;2023-02-15T09:38:40;2.20;99.90
32749;DHT22;19119;52.474;13.710;2023-02-15T09:41:10;2.20;99.90
32749;DHT22;19119;52.474;13.710;2023-02-15T09:43:46;2.40;99.90
32749;DHT22;19119;52.474;13.710;2023-02-15T09:46:41;2.40;99.90
32749;DHT22;19119;52.474;13.710;2023-02-15T09:49:32;2.40;99.90
32749;DHT22;19119;52.474;13.710;2023-02-15T09:55:09;2.70;99.90
32749;DHT22;19119;52.474;13.710;2023-02-15T09:57:58;2.70;99.90
32749;DHT22;19119;52.474;13.710;2023-02-15T10:03:13;2.90;99.90
32749;DHT22;19119;52.474;13.710;2023-02-15T10:06:02;2.90;99.90
32749;DHT22;19119;52.474;13.710;2023-02-15T10:14:12;3.20;99.90
32749;DHT22;19119;52.474;13.710;2023-02-15T10:17:04;3.20;99.90
32749;DHT22;19119;52.474;13.710;2023-02-15T10:20:02;3.30;99.90
32749;DHT22;19119;52.474;13.710;2023-02-15T10:25:51;3.40;99.90
32749;DHT22;19119;52.474;13.710;2023-02-15T10:28:53;3.40;99.90
32749;DHT22;19119;52.474;13.710;2023-02-15T10:31:28;3.60;99.90
32749;DHT22;19119;52.474;13.710;2023-02-15T10:34:06;3.70;99.90
32749;DHT22;19119;52.474;13.710;2023-02-15T10:36:58;4.00;99.90
32749;DHT22;19119;52.474;13.710;2023-02-15T10:45:31;4.20;99.90
32749;DHT22;19119;52.474;13.710;2023-02-15T10:51:01;4.40;99.90
32749;DHT22;19119;52.474;13.710;2023-02-15T10:53:56;4.40;99.90
32749;DHT22;19119;52.474;13.710;2023-02-15T10:59:03;4.50;99.90
32749;DHT22;19119;52.474;13.710;2023-02-15T11:01:53;4.60;99.90
32749;DHT22;19119;52.474;13.710;2023-02-15T11:07:19;4.60;99.90
32749;DHT22;19119;52.474;13.710;2023-02-15T11:10:14;4.60;99.90
32749;DHT22;19119;52.474;13.710;2023-02-15T11:12:45;4.50;99.90
32749;DHT22;19119;52.474;13.710;2023-02-15T11:15:16;4.70;99.90
32749;DHT22;19119;52.474;13.710;2023-02-15T11:17:53;4.80;99.90
32749;DHT22;19119;52.474;13.710;2023-02-15T11:20:31;4.90;99.90
32749;DHT22;19119;52.474;13.710;2023-02-15T11:22:59;4.90;99.90
32749;DHT22;19119;52.474;13.710;2023-02-15T11:25:33;5.00;99.90
32749;DHT22;19119;52.474;13.710;2023-02-15T11:28:00;5.20;99.90
32749;DHT22;19119;52.474;13.710;2023-02-15T11:30:41;5.30;99.90
32749;DHT22;19119;52.474;13.710;2023-02-15T11:33:16;5.50;99.90
32749;DHT22;19119;52.474;13.710;2023-02-15T11:35:53;5.60;99.90
32749;DHT22;19119;52.474;13.710;2023-02-15T11:38:22;5.50;99.90
32749;DHT22;19119;52.474;13.710;2023-02-15T11:40:55;5.60;99.90
32749;DHT22;19119;52.474;13.710;2023-02-15T11:43:46;5.60;99.90
32749;DHT22;19119;52.474;13.710;2023-02-15T11:46:15;5.60;99.90
32749;DHT22;19119;52.474;13.710;2023-02-15T11:48:41;5.70;99.90
32749;DHT22;19119;52.474;13.710;2023-02-15T11:51:21;5.80;99.90
32749;DHT22;19119;52.474;13.710;2023-02-15T11:53:48;5.90;99.90
32749;DHT22;19119;52.474;13.710;2023-02-15T11:56:19;5.80;99.90
32749;DHT22;19119;52.474;13.710;2023-02-15T12:01:32;6.10;99.90
32749;DHT22;19119;52.474;13.710;2023-02-15T12:06:37;6.40;99.90
32749;DHT22;19119;52.474;13.710;2023-02-15T12:09:31;6.40;99.90
32749;DHT22;19119;52.474;13.710;2023-02-15T12:12:23;6.30;99.90
32749;DHT22;19119;52.474;13.710;2023-02-15T12:14:51;6.50;99.90
32749;DHT22;19119;52.474;13.710;2023-02-15T12:17:18;6.40;99.90
32749;DHT22;19119;52.474;13.710;2023-02-15T12:19:45;6.50;99.90
32749;DHT22;19119;52.474;13.710;2023-02-15T12:22:26;6.70;99.90
32749;DHT22;19119;52.474;13.710;2023-02-15T12:24:55;6.80;99.90
32749;DHT22;19119;52.474;13.710;2023-02-15T12:27:27;6.90;99.90
32749;DHT22;19119;52.474;13.710;2023-02-15T12:30:18;7.00;99.90
32749;DHT22;19119;52.474;13.710;2023-02-15T12:32:53;7.20;99.90
32749;DHT22;19119;52.474;13.710;2023-02-15T12:35:31;7.40;99.90
32749;DHT22;19119;52.474;13.710;2023-02-15T12:38:03;7.30;99.90
32749;DHT22;19119;52.474;13.710;2023-02-15T12:40:31;7.50;99.90
32749;DHT22;19119;52.474;13.710;2023-02-15T12:42:58;7.60;99.90
32749;DHT22;19119;52.474;13.710;2023-02-15T12:45:32;7.60;99.90
32749;DHT22;19119;52.474;13.710;2023-02-15T12:50:44;7.60;99.90
32749;DHT22;19119;52.474;13.710;2023-02-15T12:53:17;7.80;99.90
32749;DHT22;19119;52.474;13.710;2023-02-15T12:55:56;7.90;99.90
32749;DHT22;19119;52.474;13.710;2023-02-15T12:58:29;7.90;99.90
32749;DHT22;19119;52.474;13.710;2023-02-15T13:01:15;8.10;99.90
32749;DHT22;19119;52.474;13.710;2023-02-15T13:04:01;8.20;99.90
32749;DHT22;19119;52.474;13.710;2023-02-15T13:06:28;8.20;99.90
32749;DHT22;19119;52.474;13.710;2023-02-15T13:08:58;8.30;99.90
32749;DHT22;19119;52.474;13.710;2023-02-15T13:11:31;8.20;99.90
32749;DHT22;19119;52.474;13.710;2023-02-15T13:14:07;8.20;99.90
32749;DHT22;19119;52.474;13.710;2023-02-15T13:16:41;8.40;99.90
32749;DHT22;19119;52.474;13.710;2023-02-15T13:19:44;8.50;99.90
32749;DHT22;19119;52.474;13.710;2023-02-15T13:22:19;8.50;99.90
32749;DHT22;19119;52.474;13.710;2023-02-15T13:24:50;8.60;99.90
32749;DHT22;19119;52.474;13.710;2023-02-15T13:27:20;8.70;99.90
32749;DHT22;19119;52.474;13.710;2023-02-15T13:29:52;8.60;99.90
32749;DHT22;19119;52.474;13.710;2023-02-15T13:34:44;8.80;99.90
32749;DHT22;19119;52.474;13.710;2023-02-15T13:37:20;8.80;99.90
32749;DHT22;19119;52.474;13.710;2023-02-15T13:40:11;9.00;99.90
32749;DHT22;19119;52.474;13.710;2023-02-15T13:42:56;9.00;99.90
32749;DHT22;19119;52.474;13.710;2023-02-15T13:45:39;9.00;99.90
32749;DHT22;19119;52.474;13.710;2023-02-15T13:48:35;9.00;99.90
32749;DHT22;19119;52.474;13.710;2023-02-15T13:51:25;9.00;99.90
32749;DHT22;19119;52.474;13.710;2023-02-15T14:02:40;9.10;99.90
32749;DHT22;19119;52.474;13.710;2023-02-15T14:08:08;9.20;99.90
32749;DHT22;19119;52.474;13.710;2023-02-15T14:17:17;9.10;99.90
32749;DHT22;19119;52.474;13.710;2023-02-15T14:22:27;9.20;99.90
32749;DHT22;19119;52.474;13.710;2023-02-15T14:25:15;9.20;99.90
32749;DHT22;19119;52.474;13.710;2023-02-15T14:30:32;9.30;99.90
32749;DHT22;19119;52.474;13.710;2023-02-15T14:33:38;9.30;99.90
32749;DHT22;19119;52.474;13.710;2023-02-15T14:36:07;9.40;99.90
32749;DHT22;19119;52.474;13.710;2023-02-15T14:38:51;9.40;99.90
32749;DHT22;19119;52.474;13.710;2023-02-15T14:41:50;9.30;99.90
32749;DHT22;19119;52.474;13.710;2023-02-15T14:44:39;9.40;99.90
32749;DHT22;19119;52.474;13.710;2023-02-15T14:47:35;9.40;99.90
32749;DHT22;19119;52.474;13.710;2023-02-15T14:53:31;9.50;99.90
32749;DHT22;19119;52.474;13.710;2023-02-15T14:58:55;9.50;99.90
32749;DHT22;19119;52.474;13.710;2023-02-15T15:01:35;9.50;99.90
32749;DHT22;19119;52.474;13.710;2023-02-15T15:04:05;9.50;99.90
32749;DHT22;19119;52.474;13.710;2023-02-15T15:06:35;9.40;99.90
32749;DHT22;19119;52.474;13.710;2023-02-15T15:09:10;9.40;99.90
32749;DHT22;19119;52.474;13.710;2023-02-15T15:11:39;9.30;99.90
32749;DHT22;19119;52.474;13.710;2023-02-15T15:14:04;9.30;99.90
32749;DHT22;19119;52.474;13.710;2023-02-15T15:19:11;9.10;99.90
32749;DHT22;19119;52.474;13.710;2023-02-15T15:27:41;9.00;99.90
32749;DHT22;19119;52.474;13.710;2023-02-15T15:32:46;8.90;99.90
32749;DHT22;19119;52.474;13.710;2023-02-15T15:40:56;8.70;99.90
32749;DHT22;19119;52.474;13.710;2023-02-15T15:49:12;8.30;99.90
32749;DHT22;19119;52.474;13.710;2023-02-15T15:51:41;8.30;99.90
32749;DHT22;19119;52.474;13.710;2023-02-15T15:56:44;8.00;99.90
32749;DHT22;19119;52.474;13.710;2023-02-15T15:59:19;7.90;99.90
32749;DHT22;19119;52.474;13.710;2023-02-15T16:01:46;7.60;99.90
32749;DHT22;19119;52.474;13.710;2023-02-15T16:04:29;7.50;99.90
32749;DHT22;19119;52.474;13.710;2023-02-15T16:06:57;7.50;99.90
32749;DHT22;19119;52.474;13.710;2023-02-15T16:09:25;7.30;99.90
32749;DHT22;19119;52.474;13.710;2023-02-15T16:11:58;7.10;99.90
32749;DHT22;19119;52.474;13.710;2023-02-15T16:14:36;7.00;99.90
32749;DHT22;19119;52.474;13.710;2023-02-15T16:17:05;6.80;99.90
32749;DHT22;19119;52.474;13.710;2023-02-15T16:19:38;6.60;99.90
32749;DHT22;19119;52.474;13.710;2023-02-15T16:22:09;6.50;99.90
32749;DHT22;19119;52.474;13.710;2023-02-15T16:24:57;6.40;99.90
32749;DHT22;19119;52.474;13.710;2023-02-15T16:27:33;6.30;99.90
32749;DHT22;19119;52.474;13.710;2023-02-15T16:30:30;6.20;99.90
32749;DHT22;19119;52.474;13.710;2023-02-15T16:33:13;6.10;99.90
32749;DHT22;19119;52.474;13.710;2023-02-15T16:36:27;5.90;99.90
32749;DHT22;19119;52.474;13.710;2023-02-15T16:41:22;5.60;99.90
32749;DHT22;19119;52.474;13.710;2023-02-15T16:43:49;5.50;99.90
32749;DHT22;19119;52.474;13.710;2023-02-15T16:46:36;5.40;99.90
32749;DHT22;19119;52.474;13.710;2023-02-15T16:49:07;5.30;99.90
32749;DHT22;19119;52.474;13.710;2023-02-15T16:51:42;5.20;99.90
32749;DHT22;19119;52.474;13.710;2023-02-15T16:54:16;5.00;99.90
32749;DHT22;19119;52.474;13.710;2023-02-15T16:56:43;4.80;99.90
32749;DHT22;19119;52.474;13.710;2023-02-15T16:59:36;4.80;99.90
32749;DHT22;19119;52.474;13.710;2023-02-15T17:02:06;4.70;99.90
32749;DHT22;19119;52.474;13.710;2023-02-15T17:04:37;4.60;99.90
32749;DHT22;19119;52.474;13.710;2023-02-15T17:07:05;4.50;99.90
32749;DHT22;19119;52.474;13.710;2023-02-15T17:09:32;4.40;99.90
32749;DHT22;19119;52.474;13.710;2023-02-15T17:11:58;4.30;99.90
32749;DHT22;19119;52.474;13.710;2023-02-15T17:14:29;4.20;99.90
32749;DHT22;19119;52.474;13.710;2023-02-15T17:19:44;3.90;99.90
32749;DHT22;19119;52.474;13.710;2023-02-15T17:22:19;3.90;99.90
32749;DHT22;19119;52.474;13.710;2023-02-15T17:24:47;3.90;99.90
32749;DHT22;19119;52.474;13.710;2023-02-15T17:27:19;3.80;99.90
32749;DHT22;19119;52.474;13.710;2023-02-15T17:30:04;3.70;99.90
32749;DHT22;19119;52.474;13.710;2023-02-15T17:32:38;3.70;99.90
32749;DHT22;19119;52.474;13.710;2023-02-15T17:35:19;3.50;99.90
32749;DHT22;19119;52.474;13.710;2023-02-15T17:37:54;3.40;99.90
32749;DHT22;19119;52.474;13.710;2023-02-15T17:40:27;3.40;99.90
32749;DHT22;19119;52.474;13.710;2023-02-15T17:42:53;3.40;99.90
32749;DHT22;19119;52.474;13.710;2023-02-15T17:45:19;3.40;99.90
32749;DHT22;19119;52.474;13.710;2023-02-15T17:47:47;3.30;99.90
32749;DHT22;19119;52.474;13.710;2023-02-15T17:50:23;3.20;99.90
32749;DHT22;19119;52.474;13.710;2023-02-15T17:52:49;3.10;99.90
32749;DHT22;19119;52.474;13.710;2023-02-15T17:55:18;3.00;99.90
32749;DHT22;19119;52.474;13.710;2023-02-15T17:58:05;2.90;99.90